sensor_id;sensor_type;location;lat;lon;timestamp;P1;durP1;ratioP1;P2;durP2;ratioP2
60831;SDS011;46665;51.558;-0.448;2023-04-15T00:00:26;3.63;;;1.80;;
60831;SDS011;46665;51.558;-0.448;2023-04-15T00:02:53;2.28;;;1.80;;
60831;SDS011;46665;51.558;-0.448;2023-04-15T00:05:19;2.05;;;1.20;;
60831;SDS011;46665;51.558;-0.448;2023-04-15T00:07:45;1.13;;;1.02;;
60831;SDS011;46665;51.558;-0.448;2023-04-15T00:10:11;2.17;;;0.98;;
60831;SDS011;46665;51.558;-0.448;2023-04-15T00:12:36;3.78;;;1.20;;
60831;SDS011;46665;51.558;-0.448;2023-04-15T00:15:02;1.25;;;1.17;;
60831;SDS011;46665;51.558;-0.448;2023-04-15T00:17:28;1.08;;;0.80;;
60831;SDS011;46665;51.558;-0.448;2023-04-15T00:19:53;3.72;;;1.88;;
60831;SDS011;46665;51.558;-0.448;2023-04-15T00:22:19;2.63;;;1.85;;
60831;SDS011;46665;51.558;-0.448;2023-04-15T00:24:44;2.10;;;1.90;;
60831;SDS011;46665;51.558;-0.448;2023-04-15T00:27:10;3.00;;;1.65;;
60831;SDS011;46665;51.558;-0.448;2023-04-15T00:29:35;1.67;;;1.58;;
60831;SDS011;46665;51.558;-0.448;2023-04-15T00:32:01;2.30;;;2.15;;
60831;SDS011;46665;51.558;-0.448;2023-04-15T00:34:26;4.20;;;2.40;;
60831;SDS011;46665;51.558;-0.448;2023-04-15T00:36:53;2.90;;;1.80;;
60831;SDS011;46665;51.558;-0.448;2023-04-15T00:39:18;2.13;;;1.88;;
60831;SDS011;46665;51.558;-0.448;2023-04-15T00:41:44;2.35;;;1.80;;
60831;SDS011;46665;51.558;-0.448;2023-04-15T00:44:10;3.78;;;2.15;;
60831;SDS011;46665;51.558;-0.448;2023-04-15T00:46:36;2.05;;;1.52;;
60831;SDS011;46665;51.558;-0.448;2023-04-15T00:49:03;2.33;;;2.13;;
60831;SDS011;46665;51.558;-0.448;2023-04-15T00:51:29;4.93;;;2.17;;
60831;SDS011;46665;51.558;-0.448;2023-04-15T00:53:57;2.22;;;2.03;;
60831;SDS011;46665;51.558;-0.448;2023-04-15T00:56:26;3.17;;;1.98;;
60831;SDS011;46665;51.558;-0.448;2023-04-15T00:58:52;4.53;;;2.25;;
60831;SDS011;46665;51.558;-0.448;2023-04-15T01:01:21;4.13;;;2.20;;
60831;SDS011;46665;51.558;-0.448;2023-04-15T01:03:50;2.33;;;1.75;;
60831;SDS011;46665;51.558;-0.448;2023-04-15T01:06:16;2.38;;;1.90;;
60831;SDS011;46665;51.558;-0.448;2023-04-15T01:08:42;2.42;;;1.88;;
60831;SDS011;46665;51.558;-0.448;2023-04-15T01:11:07;1.52;;;1.30;;
60831;SDS011;46665;51.558;-0.448;2023-04-15T01:13:34;1.58;;;1.48;;
60831;SDS011;46665;51.558;-0.448;2023-04-15T01:16:01;2.88;;;1.58;;
60831;SDS011;46665;51.558;-0.448;2023-04-15T01:18:27;1.50;;;1.25;;
60831;SDS011;46665;51.558;-0.448;2023-04-15T01:20:53;2.35;;;1.45;;
60831;SDS011;46665;51.558;-0.448;2023-04-15T01:23:19;2.10;;;1.77;;
60831;SDS011;46665;51.558;-0.448;2023-04-15T01:25:46;1.45;;;1.35;;
60831;SDS011;46665;51.558;-0.448;2023-04-15T01:28:13;3.03;;;1.25;;
60831;SDS011;46665;51.558;-0.448;2023-04-15T01:30:38;3.40;;;1.30;;
60831;SDS011;46665;51.558;-0.448;2023-04-15T01:33:04;1.83;;;1.73;;
60831;SDS011;46665;51.558;-0.448;2023-04-15T01:35:29;1.08;;;1.05;;
60831;SDS011;46665;51.558;-0.448;2023-04-15T01:37:55;1.23;;;1.13;;
60831;SDS011;46665;51.558;-0.448;2023-04-15T01:40:27;1.20;;;1.10;;
60831;SDS011;46665;51.558;-0.448;2023-04-15T01:42:53;2.70;;;1.02;;
60831;SDS011;46665;51.558;-0.448;2023-04-15T01:45:18;0.80;;;0.80;;
60831;SDS011;46665;51.558;-0.448;2023-04-15T01:47:43;0.70;;;0.70;;
60831;SDS011;46665;51.558;-0.448;2023-04-15T01:50:09;1.00;;;0.90;;
60831;SDS011;46665;51.558;-0.448;2023-04-15T01:52:35;1.17;;;0.77;;
60831;SDS011;46665;51.558;-0.448;2023-04-15T01:55:00;0.95;;;0.95;;
60831;SDS011;46665;51.558;-0.448;2023-04-15T01:57:26;0.85;;;0.85;;
60831;SDS011;46665;51.558;-0.448;2023-04-15T01:59:51;0.60;;;0.60;;
60831;SDS011;46665;51.558;-0.448;2023-04-15T02:02:16;1.13;;;1.02;;
60831;SDS011;46665;51.558;-0.448;2023-04-15T02:04:42;1.80;;;0.90;;
60831;SDS011;46665;51.558;-0.448;2023-04-15T02:07:07;0.60;;;0.60;;
60831;SDS011;46665;51.558;-0.448;2023-04-15T02:09:32;0.50;;;0.50;;
60831;SDS011;46665;51.558;-0.448;2023-04-15T02:11:58;1.00;;;0.90;;
60831;SDS011;46665;51.558;-0.448;2023-04-15T02:14:24;1.88;;;1.27;;
60831;SDS011;46665;51.558;-0.448;2023-04-15T02:16:50;0.55;;;0.55;;
60831;SDS011;46665;51.558;-0.448;2023-04-15T02:19:15;2.40;;;0.77;;
60831;SDS011;46665;51.558;-0.448;2023-04-15T02:21:41;1.08;;;0.98;;
60831;SDS011;46665;51.558;-0.448;2023-04-15T02:24:07;0.93;;;0.93;;
60831;SDS011;46665;51.558;-0.448;2023-04-15T02:26:33;1.48;;;0.60;;
60831;SDS011;46665;51.558;-0.448;2023-04-15T02:28:59;8.98;;;0.90;;
60831;SDS011;46665;51.558;-0.448;2023-04-15T02:31:24;1.00;;;0.60;;
60831;SDS011;46665;51.558;-0.448;2023-04-15T02:36:27;0.70;;;0.70;;
60831;SDS011;46665;51.558;-0.448;2023-04-15T02:38:55;0.50;;;0.47;;
60831;SDS011;46665;51.558;-0.448;2023-04-15T02:41:22;0.40;;;0.40;;
60831;SDS011;46665;51.558;-0.448;2023-04-15T02:43:51;0.52;;;0.47;;
60831;SDS011;46665;51.558;-0.448;2023-04-15T02:46:17;0.45;;;0.45;;
60831;SDS011;46665;51.558;-0.448;2023-04-15T02:48:43;0.60;;;0.60;;
60831;SDS011;46665;51.558;-0.448;2023-04-15T02:53:56;0.50;;;0.50;;
60831;SDS011;46665;51.558;-0.448;2023-04-15T02:56:23;0.50;;;0.50;;
60831;SDS011;46665;51.558;-0.448;2023-04-15T02:58:49;0.57;;;0.50;;
60831;SDS011;46665;51.558;-0.448;2023-04-15T03:01:14;0.55;;;0.50;;
60831;SDS011;46665;51.558;-0.448;2023-04-15T03:03:40;0.55;;;0.45;;
60831;SDS011;46665;51.558;-0.448;2023-04-15T03:06:09;0.47;;;0.47;;
60831;SDS011;46665;51.558;-0.448;2023-04-15T03:08:34;0.43;;;0.43;;
60831;SDS011;46665;51.558;-0.448;2023-04-15T03:11:00;0.40;;;0.40;;
60831;SDS011;46665;51.558;-0.448;2023-04-15T03:13:26;0.50;;;0.50;;
60831;SDS011;46665;51.558;-0.448;2023-04-15T03:15:58;0.63;;;0.63;;
60831;SDS011;46665;51.558;-0.448;2023-04-15T03:18:26;0.60;;;0.60;;
60831;SDS011;46665;51.558;-0.448;2023-04-15T03:20:55;0.63;;;0.63;;
60831;SDS011;46665;51.558;-0.448;2023-04-15T03:23:21;0.50;;;0.40;;
60831;SDS011;46665;51.558;-0.448;2023-04-15T03:25:47;0.60;;;0.60;;
60831;SDS011;46665;51.558;-0.448;2023-04-15T03:28:15;0.70;;;0.70;;
60831;SDS011;46665;51.558;-0.448;2023-04-15T03:30:43;0.80;;;0.75;;
60831;SDS011;46665;51.558;-0.448;2023-04-15T03:38:20;0.45;;;0.45;;
60831;SDS011;46665;51.558;-0.448;2023-04-15T03:45:56;1.35;;;0.90;;
60831;SDS011;46665;51.558;-0.448;2023-04-15T03:48:21;1.75;;;1.10;;
60831;SDS011;46665;51.558;-0.448;2023-04-15T03:50:47;0.80;;;0.80;;
60831;SDS011;46665;51.558;-0.448;2023-04-15T03:53:13;0.80;;;0.63;;
60831;SDS011;46665;51.558;-0.448;2023-04-15T03:55:40;1.23;;;1.13;;
60831;SDS011;46665;51.558;-0.448;2023-04-15T03:58:05;0.80;;;0.80;;
60831;SDS011;46665;51.558;-0.448;2023-04-15T04:00:31;1.15;;;1.00;;
60831;SDS011;46665;51.558;-0.448;2023-04-15T04:02:59;1.00;;;1.00;;
60831;SDS011;46665;51.558;-0.448;2023-04-15T04:05:25;1.00;;;0.80;;
60831;SDS011;46665;51.558;-0.448;2023-04-15T04:07:52;0.93;;;0.90;;
60831;SDS011;46665;51.558;-0.448;2023-04-15T04:10:21;1.60;;;1.50;;
60831;SDS011;46665;51.558;-0.448;2023-04-15T04:12:46;1.13;;;1.08;;
60831;SDS011;46665;51.558;-0.448;2023-04-15T04:15:15;1.17;;;1.08;;
60831;SDS011;46665;51.558;-0.448;2023-04-15T04:17:41;2.25;;;1.60;;
60831;SDS011;46665;51.558;-0.448;2023-04-15T04:20:09;0.70;;;0.70;;
60831;SDS011;46665;51.558;-0.448;2023-04-15T04:22:38;1.63;;;0.95;;
60831;SDS011;46665;51.558;-0.448;2023-04-15T04:25:04;1.95;;;1.35;;
60831;SDS011;46665;51.558;-0.448;2023-04-15T04:27:32;1.67;;;1.15;;
60831;SDS011;46665;51.558;-0.448;2023-04-15T04:29:57;1.95;;;1.10;;
60831;SDS011;46665;51.558;-0.448;2023-04-15T04:32:23;1.17;;;1.10;;
60831;SDS011;46665;51.558;-0.448;2023-04-15T04:34:48;3.40;;;1.25;;
60831;SDS011;46665;51.558;-0.448;2023-04-15T04:37:14;1.38;;;1.05;;
60831;SDS011;46665;51.558;-0.448;2023-04-15T04:39:39;1.48;;;1.38;;
60831;SDS011;46665;51.558;-0.448;2023-04-15T04:42:05;1.17;;;1.05;;
60831;SDS011;46665;51.558;-0.448;2023-04-15T04:44:30;1.40;;;1.30;;
60831;SDS011;46665;51.558;-0.448;2023-04-15T04:46:56;1.27;;;1.17;;
60831;SDS011;46665;51.558;-0.448;2023-04-15T04:49:21;1.08;;;1.05;;
60831;SDS011;46665;51.558;-0.448;2023-04-15T04:51:46;1.30;;;1.20;;
60831;SDS011;46665;51.558;-0.448;2023-04-15T04:54:12;1.73;;;1.63;;
60831;SDS011;46665;51.558;-0.448;2023-04-15T04:56:38;2.33;;;1.40;;
60831;SDS011;46665;51.558;-0.448;2023-04-15T04:59:04;1.77;;;1.67;;
60831;SDS011;46665;51.558;-0.448;2023-04-15T05:01:29;1.73;;;1.60;;
60831;SDS011;46665;51.558;-0.448;2023-04-15T05:03:55;1.50;;;1.40;;
60831;SDS011;46665;51.558;-0.448;2023-04-15T05:06:20;1.58;;;1.40;;
60831;SDS011;46665;51.558;-0.448;2023-04-15T05:08:46;1.20;;;1.10;;
60831;SDS011;46665;51.558;-0.448;2023-04-15T05:11:12;1.58;;;1.48;;
60831;SDS011;46665;51.558;-0.448;2023-04-15T05:13:37;1.50;;;1.40;;
60831;SDS011;46665;51.558;-0.448;2023-04-15T05:16:06;1.38;;;1.27;;
60831;SDS011;46665;51.558;-0.448;2023-04-15T05:18:31;1.48;;;1.17;;
60831;SDS011;46665;51.558;-0.448;2023-04-15T05:20:57;2.45;;;1.48;;
60831;SDS011;46665;51.558;-0.448;2023-04-15T05:23:23;1.58;;;1.48;;
60831;SDS011;46665;51.558;-0.448;2023-04-15T05:25:49;4.38;;;1.23;;
60831;SDS011;46665;51.558;-0.448;2023-04-15T05:28:14;2.13;;;1.33;;
60831;SDS011;46665;51.558;-0.448;2023-04-15T05:30:40;1.50;;;1.08;;
60831;SDS011;46665;51.558;-0.448;2023-04-15T05:33:09;1.20;;;1.10;;
60831;SDS011;46665;51.558;-0.448;2023-04-15T05:35:34;1.45;;;1.35;;
60831;SDS011;46665;51.558;-0.448;2023-04-15T05:38:00;4.25;;;1.85;;
60831;SDS011;46665;51.558;-0.448;2023-04-15T05:40:25;0.85;;;0.82;;
60831;SDS011;46665;51.558;-0.448;2023-04-15T05:42:51;1.85;;;1.13;;
60831;SDS011;46665;51.558;-0.448;2023-04-15T05:45:16;0.73;;;0.73;;
60831;SDS011;46665;51.558;-0.448;2023-04-15T05:47:42;2.00;;;1.45;;
60831;SDS011;46665;51.558;-0.448;2023-04-15T05:50:07;2.30;;;1.40;;
60831;SDS011;46665;51.558;-0.448;2023-04-15T05:52:33;2.15;;;1.20;;
60831;SDS011;46665;51.558;-0.448;2023-04-15T05:54:58;0.82;;;0.82;;
60831;SDS011;46665;51.558;-0.448;2023-04-15T05:57:24;1.13;;;1.02;;
60831;SDS011;46665;51.558;-0.448;2023-04-15T05:59:49;1.02;;;0.88;;
60831;SDS011;46665;51.558;-0.448;2023-04-15T06:02:18;1.23;;;0.82;;
60831;SDS011;46665;51.558;-0.448;2023-04-15T06:04:43;3.13;;;1.45;;
60831;SDS011;46665;51.558;-0.448;2023-04-15T06:07:09;1.42;;;1.23;;
60831;SDS011;46665;51.558;-0.448;2023-04-15T06:09:34;1.35;;;1.20;;
60831;SDS011;46665;51.558;-0.448;2023-04-15T06:12:00;4.88;;;2.00;;
60831;SDS011;46665;51.558;-0.448;2023-04-15T06:14:26;1.67;;;0.95;;
60831;SDS011;46665;51.558;-0.448;2023-04-15T06:16:51;1.85;;;1.23;;
60831;SDS011;46665;51.558;-0.448;2023-04-15T06:19:17;1.25;;;1.15;;
60831;SDS011;46665;51.558;-0.448;2023-04-15T06:21:43;0.95;;;0.95;;
60831;SDS011;46665;51.558;-0.448;2023-04-15T06:24:10;0.95;;;0.95;;
60831;SDS011;46665;51.558;-0.448;2023-04-15T06:26:35;4.80;;;1.73;;
60831;SDS011;46665;51.558;-0.448;2023-04-15T06:29:01;2.50;;;0.95;;
60831;SDS011;46665;51.558;-0.448;2023-04-15T06:31:26;1.35;;;1.08;;
60831;SDS011;46665;51.558;-0.448;2023-04-15T06:33:51;1.00;;;1.00;;
60831;SDS011;46665;51.558;-0.448;2023-04-15T06:36:17;0.90;;;0.90;;
60831;SDS011;46665;51.558;-0.448;2023-04-15T06:38:42;0.52;;;0.52;;
60831;SDS011;46665;51.558;-0.448;2023-04-15T06:41:07;1.13;;;1.02;;
60831;SDS011;46665;51.558;-0.448;2023-04-15T06:43:33;0.90;;;0.90;;
60831;SDS011;46665;51.558;-0.448;2023-04-15T06:45:59;0.52;;;0.52;;
60831;SDS011;46665;51.558;-0.448;2023-04-15T06:48:24;2.15;;;1.20;;
60831;SDS011;46665;51.558;-0.448;2023-04-15T06:50:50;0.82;;;0.82;;
60831;SDS011;46665;51.558;-0.448;2023-04-15T06:53:16;1.10;;;0.70;;
60831;SDS011;46665;51.558;-0.448;2023-04-15T06:55:41;1.58;;;1.25;;
60831;SDS011;46665;51.558;-0.448;2023-04-15T06:58:06;1.02;;;0.82;;
60831;SDS011;46665;51.558;-0.448;2023-04-15T07:00:32;1.25;;;1.15;;
60831;SDS011;46665;51.558;-0.448;2023-04-15T07:02:58;1.15;;;1.05;;
60831;SDS011;46665;51.558;-0.448;2023-04-15T07:05:28;3.95;;;1.88;;
60831;SDS011;46665;51.558;-0.448;2023-04-15T07:10:30;1.33;;;1.23;;
60831;SDS011;46665;51.558;-0.448;2023-04-15T07:13:04;5.82;;;1.23;;
60831;SDS011;46665;51.558;-0.448;2023-04-15T07:15:29;3.13;;;1.27;;
60831;SDS011;46665;51.558;-0.448;2023-04-15T07:17:55;1.17;;;1.08;;
60831;SDS011;46665;51.558;-0.448;2023-04-15T07:20:21;2.40;;;1.48;;
60831;SDS011;46665;51.558;-0.448;2023-04-15T07:22:46;2.20;;;1.60;;
60831;SDS011;46665;51.558;-0.448;2023-04-15T07:25:12;2.65;;;1.40;;
60831;SDS011;46665;51.558;-0.448;2023-04-15T07:27:37;1.67;;;1.23;;
60831;SDS011;46665;51.558;-0.448;2023-04-15T07:30:03;2.20;;;1.23;;
60831;SDS011;46665;51.558;-0.448;2023-04-15T07:32:28;1.95;;;1.10;;
60831;SDS011;46665;51.558;-0.448;2023-04-15T07:34:54;1.35;;;1.25;;
60831;SDS011;46665;51.558;-0.448;2023-04-15T07:37:19;3.53;;;1.63;;
60831;SDS011;46665;51.558;-0.448;2023-04-15T07:39:44;2.50;;;1.20;;
60831;SDS011;46665;51.558;-0.448;2023-04-15T07:42:10;1.67;;;1.55;;
60831;SDS011;46665;51.558;-0.448;2023-04-15T07:44:35;1.30;;;1.17;;
60831;SDS011;46665;51.558;-0.448;2023-04-15T07:47:01;1.67;;;1.20;;
60831;SDS011;46665;51.558;-0.448;2023-04-15T07:49:27;2.45;;;1.10;;
60831;SDS011;46665;51.558;-0.448;2023-04-15T07:51:52;1.42;;;1.33;;
60831;SDS011;46665;51.558;-0.448;2023-04-15T07:54:18;1.27;;;1.17;;
60831;SDS011;46665;51.558;-0.448;2023-04-15T07:56:43;1.25;;;1.15;;
60831;SDS011;46665;51.558;-0.448;2023-04-15T07:59:08;1.63;;;1.52;;
60831;SDS011;46665;51.558;-0.448;2023-04-15T08:01:34;4.80;;;1.85;;
60831;SDS011;46665;51.558;-0.448;2023-04-15T08:04:00;1.20;;;1.02;;
60831;SDS011;46665;51.558;-0.448;2023-04-15T08:06:26;1.42;;;1.20;;
60831;SDS011;46665;51.558;-0.448;2023-04-15T08:08:51;1.30;;;1.20;;
60831;SDS011;46665;51.558;-0.448;2023-04-15T08:11:18;1.33;;;1.13;;
60831;SDS011;46665;51.558;-0.448;2023-04-15T08:13:45;5.88;;;1.20;;
60831;SDS011;46665;51.558;-0.448;2023-04-15T08:16:21;3.72;;;1.10;;
60831;SDS011;46665;51.558;-0.448;2023-04-15T08:18:49;2.10;;;1.10;;
60831;SDS011;46665;51.558;-0.448;2023-04-15T08:21:16;6.10;;;2.20;;
60831;SDS011;46665;51.558;-0.448;2023-04-15T08:23:42;1.40;;;1.30;;
60831;SDS011;46665;51.558;-0.448;2023-04-15T08:26:09;2.58;;;1.45;;
60831;SDS011;46665;51.558;-0.448;2023-04-15T08:28:34;2.25;;;1.73;;
60831;SDS011;46665;51.558;-0.448;2023-04-15T08:31:01;2.42;;;1.23;;
60831;SDS011;46665;51.558;-0.448;2023-04-15T08:33:26;1.17;;;0.80;;
60831;SDS011;46665;51.558;-0.448;2023-04-15T08:35:52;2.63;;;1.20;;
60831;SDS011;46665;51.558;-0.448;2023-04-15T08:38:18;2.40;;;1.52;;
60831;SDS011;46665;51.558;-0.448;2023-04-15T08:40:44;2.35;;;1.20;;
60831;SDS011;46665;51.558;-0.448;2023-04-15T08:43:12;2.40;;;1.58;;
60831;SDS011;46665;51.558;-0.448;2023-04-15T08:45:45;5.22;;;1.60;;
60831;SDS011;46665;51.558;-0.448;2023-04-15T08:48:14;4.90;;;1.55;;
60831;SDS011;46665;51.558;-0.448;2023-04-15T08:50:43;1.25;;;1.15;;
60831;SDS011;46665;51.558;-0.448;2023-04-15T08:53:12;1.38;;;1.27;;
60831;SDS011;46665;51.558;-0.448;2023-04-15T08:55:46;1.65;;;1.55;;
60831;SDS011;46665;51.558;-0.448;2023-04-15T08:58:15;3.53;;;1.98;;
60831;SDS011;46665;51.558;-0.448;2023-04-15T09:00:42;1.83;;;1.23;;
60831;SDS011;46665;51.558;-0.448;2023-04-15T09:03:07;1.50;;;1.10;;
60831;SDS011;46665;51.558;-0.448;2023-04-15T09:05:37;1.52;;;1.25;;
60831;SDS011;46665;51.558;-0.448;2023-04-15T09:08:03;1.85;;;1.40;;
60831;SDS011;46665;51.558;-0.448;2023-04-15T09:10:29;2.55;;;1.08;;
60831;SDS011;46665;51.558;-0.448;2023-04-15T09:12:55;1.45;;;1.20;;
60831;SDS011;46665;51.558;-0.448;2023-04-15T09:15:22;1.48;;;1.35;;
60831;SDS011;46665;51.558;-0.448;2023-04-15T09:17:49;4.95;;;1.42;;
60831;SDS011;46665;51.558;-0.448;2023-04-15T09:20:15;1.05;;;0.73;;
60831;SDS011;46665;51.558;-0.448;2023-04-15T09:22:44;1.10;;;0.98;;
60831;SDS011;46665;51.558;-0.448;2023-04-15T09:27:48;1.00;;;0.98;;
60831;SDS011;46665;51.558;-0.448;2023-04-15T09:30:14;0.80;;;0.80;;
60831;SDS011;46665;51.558;-0.448;2023-04-15T09:32:53;2.05;;;0.63;;
60831;SDS011;46665;51.558;-0.448;2023-04-15T09:35:24;1.58;;;0.90;;
60831;SDS011;46665;51.558;-0.448;2023-04-15T09:37:50;1.20;;;0.90;;
60831;SDS011;46665;51.558;-0.448;2023-04-15T09:42:57;1.10;;;1.00;;
60831;SDS011;46665;51.558;-0.448;2023-04-15T09:45:24;1.65;;;1.13;;
60831;SDS011;46665;51.558;-0.448;2023-04-15T09:47:49;0.73;;;0.73;;
60831;SDS011;46665;51.558;-0.448;2023-04-15T09:50:18;3.08;;;1.55;;
60831;SDS011;46665;51.558;-0.448;2023-04-15T09:52:44;0.70;;;0.70;;
60831;SDS011;46665;51.558;-0.448;2023-04-15T09:55:10;1.08;;;1.00;;
60831;SDS011;46665;51.558;-0.448;2023-04-15T09:57:37;1.20;;;1.00;;
60831;SDS011;46665;51.558;-0.448;2023-04-15T10:00:03;2.05;;;1.05;;
60831;SDS011;46665;51.558;-0.448;2023-04-15T10:02:30;2.00;;;0.98;;
60831;SDS011;46665;51.558;-0.448;2023-04-15T10:04:56;0.90;;;0.75;;
60831;SDS011;46665;51.558;-0.448;2023-04-15T10:07:22;1.27;;;0.88;;
60831;SDS011;46665;51.558;-0.448;2023-04-15T10:09:48;0.80;;;0.80;;
60831;SDS011;46665;51.558;-0.448;2023-04-15T10:12:16;0.50;;;0.50;;
60831;SDS011;46665;51.558;-0.448;2023-04-15T10:14:43;4.45;;;0.75;;
60831;SDS011;46665;51.558;-0.448;2023-04-15T10:17:12;8.80;;;0.77;;
60831;SDS011;46665;51.558;-0.448;2023-04-15T10:19:41;3.60;;;0.98;;
60831;SDS011;46665;51.558;-0.448;2023-04-15T10:22:07;0.68;;;0.57;;
60831;SDS011;46665;51.558;-0.448;2023-04-15T10:24:33;1.38;;;1.27;;
60831;SDS011;46665;51.558;-0.448;2023-04-15T10:26:59;3.28;;;0.77;;
60831;SDS011;46665;51.558;-0.448;2023-04-15T10:29:25;1.15;;;0.70;;
60831;SDS011;46665;51.558;-0.448;2023-04-15T10:31:54;0.60;;;0.60;;
60831;SDS011;46665;51.558;-0.448;2023-04-15T10:34:22;4.15;;;0.82;;
60831;SDS011;46665;51.558;-0.448;2023-04-15T10:36:48;0.60;;;0.60;;
60831;SDS011;46665;51.558;-0.448;2023-04-15T10:42:05;1.38;;;0.77;;
60831;SDS011;46665;51.558;-0.448;2023-04-15T10:44:40;0.90;;;0.73;;
60831;SDS011;46665;51.558;-0.448;2023-04-15T10:47:11;0.70;;;0.70;;
60831;SDS011;46665;51.558;-0.448;2023-04-15T10:49:56;0.95;;;0.63;;
60831;SDS011;46665;51.558;-0.448;2023-04-15T10:52:24;2.95;;;1.63;;
60831;SDS011;46665;51.558;-0.448;2023-04-15T10:57:59;1.60;;;1.20;;
60831;SDS011;46665;51.558;-0.448;2023-04-15T11:00:29;2.28;;;1.00;;
60831;SDS011;46665;51.558;-0.448;2023-04-15T11:03:06;1.60;;;1.50;;
60831;SDS011;46665;51.558;-0.448;2023-04-15T11:08:10;1.58;;;1.02;;
60831;SDS011;46665;51.558;-0.448;2023-04-15T11:13:03;0.98;;;0.93;;
60831;SDS011;46665;51.558;-0.448;2023-04-15T11:15:31;6.00;;;0.90;;
60831;SDS011;46665;51.558;-0.448;2023-04-15T11:18:08;1.88;;;1.65;;
60831;SDS011;46665;51.558;-0.448;2023-04-15T11:20:38;1.83;;;1.17;;
60831;SDS011;46665;51.558;-0.448;2023-04-15T11:23:04;3.53;;;1.35;;
60831;SDS011;46665;51.558;-0.448;2023-04-15T11:25:31;2.97;;;1.25;;
60831;SDS011;46665;51.558;-0.448;2023-04-15T11:27:58;1.42;;;1.33;;
60831;SDS011;46665;51.558;-0.448;2023-04-15T11:30:25;3.72;;;1.13;;
60831;SDS011;46665;51.558;-0.448;2023-04-15T11:33:05;2.08;;;1.20;;
60831;SDS011;46665;51.558;-0.448;2023-04-15T11:35:32;4.03;;;1.00;;
60831;SDS011;46665;51.558;-0.448;2023-04-15T11:38:02;1.67;;;1.08;;
60831;SDS011;46665;51.558;-0.448;2023-04-15T11:40:32;3.38;;;1.10;;
60831;SDS011;46665;51.558;-0.448;2023-04-15T11:43:06;1.45;;;1.17;;
60831;SDS011;46665;51.558;-0.448;2023-04-15T11:45:57;2.25;;;1.08;;
60831;SDS011;46665;51.558;-0.448;2023-04-15T11:48:23;1.17;;;1.05;;
60831;SDS011;46665;51.558;-0.448;2023-04-15T11:50:57;1.85;;;1.10;;
60831;SDS011;46665;51.558;-0.448;2023-04-15T11:53:23;1.75;;;1.00;;
60831;SDS011;46665;51.558;-0.448;2023-04-15T11:55:59;1.30;;;0.90;;
60831;SDS011;46665;51.558;-0.448;2023-04-15T11:58:25;1.08;;;0.80;;
60831;SDS011;46665;51.558;-0.448;2023-04-15T12:00:58;0.93;;;0.93;;
60831;SDS011;46665;51.558;-0.448;2023-04-15T12:03:25;2.25;;;0.82;;
60831;SDS011;46665;51.558;-0.448;2023-04-15T12:11:12;1.20;;;0.93;;
60831;SDS011;46665;51.558;-0.448;2023-04-15T12:13:42;2.95;;;0.82;;
60831;SDS011;46665;51.558;-0.448;2023-04-15T12:16:08;0.98;;;0.90;;
60831;SDS011;46665;51.558;-0.448;2023-04-15T12:18:36;2.20;;;1.10;;
60831;SDS011;46665;51.558;-0.448;2023-04-15T12:21:09;3.42;;;1.60;;
60831;SDS011;46665;51.558;-0.448;2023-04-15T12:23:38;8.88;;;1.20;;
60831;SDS011;46665;51.558;-0.448;2023-04-15T12:26:11;1.35;;;1.10;;
60831;SDS011;46665;51.558;-0.448;2023-04-15T12:28:39;0.95;;;0.95;;
60831;SDS011;46665;51.558;-0.448;2023-04-15T12:31:06;2.53;;;1.10;;
60831;SDS011;46665;51.558;-0.448;2023-04-15T12:33:35;1.95;;;1.20;;
60831;SDS011;46665;51.558;-0.448;2023-04-15T12:36:00;1.38;;;1.10;;
60831;SDS011;46665;51.558;-0.448;2023-04-15T12:38:27;3.50;;;1.55;;
60831;SDS011;46665;51.558;-0.448;2023-04-15T12:40:52;2.72;;;0.88;;
60831;SDS011;46665;51.558;-0.448;2023-04-15T12:43:18;3.50;;;1.55;;
60831;SDS011;46665;51.558;-0.448;2023-04-15T12:45:43;1.80;;;1.10;;
60831;SDS011;46665;51.558;-0.448;2023-04-15T12:48:09;2.05;;;1.30;;
60831;SDS011;46665;51.558;-0.448;2023-04-15T12:50:34;2.92;;;1.30;;
60831;SDS011;46665;51.558;-0.448;2023-04-15T12:53:00;1.20;;;0.80;;
60831;SDS011;46665;51.558;-0.448;2023-04-15T12:55:25;3.22;;;1.15;;
60831;SDS011;46665;51.558;-0.448;2023-04-15T12:57:51;2.28;;;0.95;;
60831;SDS011;46665;51.558;-0.448;2023-04-15T13:00:17;3.60;;;1.42;;
60831;SDS011;46665;51.558;-0.448;2023-04-15T13:02:42;2.38;;;0.90;;
60831;SDS011;46665;51.558;-0.448;2023-04-15T13:05:08;4.97;;;1.25;;
60831;SDS011;46665;51.558;-0.448;2023-04-15T13:07:35;3.30;;;1.52;;
60831;SDS011;46665;51.558;-0.448;2023-04-15T13:10:01;1.92;;;1.30;;
60831;SDS011;46665;51.558;-0.448;2023-04-15T13:12:26;1.75;;;1.08;;
60831;SDS011;46665;51.558;-0.448;2023-04-15T13:14:52;4.43;;;1.30;;
60831;SDS011;46665;51.558;-0.448;2023-04-15T13:17:17;1.42;;;1.05;;
60831;SDS011;46665;51.558;-0.448;2023-04-15T13:19:44;1.90;;;1.17;;
60831;SDS011;46665;51.558;-0.448;2023-04-15T13:22:10;3.97;;;1.10;;
60831;SDS011;46665;51.558;-0.448;2023-04-15T13:24:36;0.95;;;0.95;;
60831;SDS011;46665;51.558;-0.448;2023-04-15T13:27:03;1.50;;;0.70;;
60831;SDS011;46665;51.558;-0.448;2023-04-15T13:29:28;0.95;;;0.73;;
60831;SDS011;46665;51.558;-0.448;2023-04-15T13:31:54;2.33;;;1.00;;
60831;SDS011;46665;51.558;-0.448;2023-04-15T13:36:55;2.65;;;1.20;;
60831;SDS011;46665;51.558;-0.448;2023-04-15T13:39:21;2.08;;;1.20;;
60831;SDS011;46665;51.558;-0.448;2023-04-15T13:41:47;2.30;;;1.30;;
60831;SDS011;46665;51.558;-0.448;2023-04-15T13:44:12;1.10;;;1.00;;
60831;SDS011;46665;51.558;-0.448;2023-04-15T13:46:39;2.83;;;0.95;;
60831;SDS011;46665;51.558;-0.448;2023-04-15T13:49:06;4.68;;;1.27;;
60831;SDS011;46665;51.558;-0.448;2023-04-15T13:51:32;1.25;;;1.10;;
60831;SDS011;46665;51.558;-0.448;2023-04-15T13:54:00;2.35;;;0.90;;
60831;SDS011;46665;51.558;-0.448;2023-04-15T13:56:25;1.20;;;0.73;;
60831;SDS011;46665;51.558;-0.448;2023-04-15T13:58:51;3.15;;;1.25;;
60831;SDS011;46665;51.558;-0.448;2023-04-15T14:01:22;0.73;;;0.73;;
60831;SDS011;46665;51.558;-0.448;2023-04-15T14:03:48;1.10;;;0.80;;
60831;SDS011;46665;51.558;-0.448;2023-04-15T14:06:14;1.13;;;0.93;;
60831;SDS011;46665;51.558;-0.448;2023-04-15T14:08:39;1.50;;;1.02;;
60831;SDS011;46665;51.558;-0.448;2023-04-15T14:11:05;1.30;;;0.93;;
60831;SDS011;46665;51.558;-0.448;2023-04-15T14:13:30;3.45;;;1.13;;
60831;SDS011;46665;51.558;-0.448;2023-04-15T14:15:56;1.50;;;0.88;;
60831;SDS011;46665;51.558;-0.448;2023-04-15T14:37:13;1.40;;;1.00;;
60831;SDS011;46665;51.558;-0.448;2023-04-15T14:39:39;2.20;;;0.85;;
60831;SDS011;46665;51.558;-0.448;2023-04-15T14:55:00;0.60;;;0.60;;
60831;SDS011;46665;51.558;-0.448;2023-04-15T15:02:37;1.23;;;0.65;;
60831;SDS011;46665;51.558;-0.448;2023-04-15T15:05:06;3.20;;;0.98;;
60831;SDS011;46665;51.558;-0.448;2023-04-15T15:12:58;1.35;;;0.65;;
60831;SDS011;46665;51.558;-0.448;2023-04-15T15:25:48;1.60;;;0.83;;
60831;SDS011;46665;51.558;-0.448;2023-04-15T15:28:14;1.52;;;0.90;;
60831;SDS011;46665;51.558;-0.448;2023-04-15T15:33:21;2.28;;;0.98;;
60831;SDS011;46665;51.558;-0.448;2023-04-15T15:35:47;4.18;;;0.73;;
60831;SDS011;46665;51.558;-0.448;2023-04-15T15:38:13;3.03;;;1.20;;
60831;SDS011;46665;51.558;-0.448;2023-04-15T15:40:39;1.30;;;0.75;;
60831;SDS011;46665;51.558;-0.448;2023-04-15T15:43:04;0.68;;;0.68;;
60831;SDS011;46665;51.558;-0.448;2023-04-15T15:45:30;1.38;;;0.88;;
60831;SDS011;46665;51.558;-0.448;2023-04-15T15:47:56;2.78;;;1.00;;
60831;SDS011;46665;51.558;-0.448;2023-04-15T15:50:22;1.48;;;0.77;;
60831;SDS011;46665;51.558;-0.448;2023-04-15T15:52:48;1.95;;;0.98;;
60831;SDS011;46665;51.558;-0.448;2023-04-15T15:57:49;1.60;;;0.80;;
60831;SDS011;46665;51.558;-0.448;2023-04-15T16:00:15;3.08;;;0.77;;
60831;SDS011;46665;51.558;-0.448;2023-04-15T16:02:41;3.00;;;0.93;;
60831;SDS011;46665;51.558;-0.448;2023-04-15T16:05:07;0.73;;;0.70;;
60831;SDS011;46665;51.558;-0.448;2023-04-15T16:07:33;2.65;;;1.20;;
60831;SDS011;46665;51.558;-0.448;2023-04-15T16:09:59;2.72;;;1.38;;